sensor_id;sensor_type;location;lat;lon;timestamp;temperature;humidity
7362;DHT22;3721;44.490;11.220;2022-11-11T00:00:32;17.00;99.90
7362;DHT22;3721;44.490;11.220;2022-11-11T00:02:59;17.00;99.90
7362;DHT22;3721;44.490;11.220;2022-11-11T00:05:25;17.00;99.90
7362;DHT22;3721;44.490;11.220;2022-11-11T00:07:52;17.00;99.90
7362;DHT22;3721;44.490;11.220;2022-11-11T00:10:18;17.00;99.90
7362;DHT22;3721;44.490;11.220;2022-11-11T00:12:44;17.00;99.90
7362;DHT22;3721;44.490;11.220;2022-11-11T00:15:10;17.00;99.90
7362;DHT22;3721;44.490;11.220;2022-11-11T00:17:35;17.00;99.90
7362;DHT22;3721;44.490;11.220;2022-11-11T00:20:19;17.00;99.90
7362;DHT22;3721;44.490;11.220;2022-11-11T00:23:04;16.90;99.90
7362;DHT22;3721;44.490;11.220;2022-11-11T00:25:52;16.90;99.90
7362;DHT22;3721;44.490;11.220;2022-11-11T00:28:18;16.90;99.90
7362;DHT22;3721;44.490;11.220;2022-11-11T00:30:44;17.00;99.90
7362;DHT22;3721;44.490;11.220;2022-11-11T00:33:10;16.90;99.90
7362;DHT22;3721;44.490;11.220;2022-11-11T00:35:36;16.90;99.90
7362;DHT22;3721;44.490;11.220;2022-11-11T00:38:20;16.90;99.90
7362;DHT22;3721;44.490;11.220;2022-11-11T00:41:24;16.90;99.90
7362;DHT22;3721;44.490;11.220;2022-11-11T00:43:51;16.90;99.90
7362;DHT22;3721;44.490;11.220;2022-11-11T00:46:17;16.90;99.90
7362;DHT22;3721;44.490;11.220;2022-11-11T00:49:01;16.90;99.90
7362;DHT22;3721;44.490;11.220;2022-11-11T00:51:46;16.90;99.90
7362;DHT22;3721;44.490;11.220;2022-11-11T00:54:11;16.90;99.90
7362;DHT22;3721;44.490;11.220;2022-11-11T00:56:37;16.90;99.90
7362;DHT22;3721;44.490;11.220;2022-11-11T00:59:04;16.90;99.90
7362;DHT22;3721;44.490;11.220;2022-11-11T01:01:32;17.00;99.90
7362;DHT22;3721;44.490;11.220;2022-11-11T01:03:58;16.90;99.90
7362;DHT22;3721;44.490;11.220;2022-11-11T01:06:24;16.90;99.90
7362;DHT22;3721;44.490;11.220;2022-11-11T01:08:49;16.90;99.90
7362;DHT22;3721;44.490;11.220;2022-11-11T01:11:17;16.90;99.90
7362;DHT22;3721;44.490;11.220;2022-11-11T01:13:43;16.90;99.90
7362;DHT22;3721;44.490;11.220;2022-11-11T01:16:14;16.90;99.90
7362;DHT22;3721;44.490;11.220;2022-11-11T01:18:40;17.00;99.90
7362;DHT22;3721;44.490;11.220;2022-11-11T01:21:13;17.00;99.90
7362;DHT22;3721;44.490;11.220;2022-11-11T01:23:41;17.00;99.90
7362;DHT22;3721;44.490;11.220;2022-11-11T01:26:17;16.90;99.90
7362;DHT22;3721;44.490;11.220;2022-11-11T01:28:43;17.00;99.90
7362;DHT22;3721;44.490;11.220;2022-11-11T01:31:11;16.90;99.90
7362;DHT22;3721;44.490;11.220;2022-11-11T01:33:38;16.90;99.90
7362;DHT22;3721;44.490;11.220;2022-11-11T01:38:30;16.90;99.90
7362;DHT22;3721;44.490;11.220;2022-11-11T01:40:55;16.90;99.90
7362;DHT22;3721;44.490;11.220;2022-11-11T01:43:22;16.90;99.90
7362;DHT22;3721;44.490;11.220;2022-11-11T01:46:00;16.90;99.90
7362;DHT22;3721;44.490;11.220;2022-11-11T01:48:38;16.90;99.90
7362;DHT22;3721;44.490;11.220;2022-11-11T01:54:03;16.90;99.90
7362;DHT22;3721;44.490;11.220;2022-11-11T01:56:30;17.00;99.90
7362;DHT22;3721;44.490;11.220;2022-11-11T01:58:59;16.90;99.90
7362;DHT22;3721;44.490;11.220;2022-11-11T02:01:26;16.90;99.90
7362;DHT22;3721;44.490;11.220;2022-11-11T02:03:53;16.90;99.90
7362;DHT22;3721;44.490;11.220;2022-11-11T02:06:39;16.90;99.90
7362;DHT22;3721;44.490;11.220;2022-11-11T02:09:06;16.90;99.90
7362;DHT22;3721;44.490;11.220;2022-11-11T02:11:34;16.90;99.90
7362;DHT22;3721;44.490;11.220;2022-11-11T02:14:19;16.90;99.90
7362;DHT22;3721;44.490;11.220;2022-11-11T02:17:01;16.90;99.90
7362;DHT22;3721;44.490;11.220;2022-11-11T02:19:43;16.90;99.90
7362;DHT22;3721;44.490;11.220;2022-11-11T02:22:13;16.80;99.90
7362;DHT22;3721;44.490;11.220;2022-11-11T02:24:41;16.80;99.90
7362;DHT22;3721;44.490;11.220;2022-11-11T02:27:13;16.80;99.90
7362;DHT22;3721;44.490;11.220;2022-11-11T02:29:41;16.80;99.90
7362;DHT22;3721;44.490;11.220;2022-11-11T02:32:07;16.90;99.90
7362;DHT22;3721;44.490;11.220;2022-11-11T02:34:33;16.90;99.90
7362;DHT22;3721;44.490;11.220;2022-11-11T02:37:00;16.90;99.90
7362;DHT22;3721;44.490;11.220;2022-11-11T02:39:27;16.90;99.90
7362;DHT22;3721;44.490;11.220;2022-11-11T02:41:53;16.90;99.90
7362;DHT22;3721;44.490;11.220;2022-11-11T02:44:22;16.90;99.90
7362;DHT22;3721;44.490;11.220;2022-11-11T02:46:48;16.90;99.90
7362;DHT22;3721;44.490;11.220;2022-11-11T02:49:13;16.90;99.90
7362;DHT22;3721;44.490;11.220;2022-11-11T02:51:39;16.90;99.90
7362;DHT22;3721;44.490;11.220;2022-11-11T02:54:05;16.90;99.90
7362;DHT22;3721;44.490;11.220;2022-11-11T02:56:30;16.90;99.90
7362;DHT22;3721;44.490;11.220;2022-11-11T02:59:15;16.90;99.90
7362;DHT22;3721;44.490;11.220;2022-11-11T03:01:40;16.90;99.90
7362;DHT22;3721;44.490;11.220;2022-11-11T03:04:06;16.90;99.90
7362;DHT22;3721;44.490;11.220;2022-11-11T03:06:32;16.90;99.90
7362;DHT22;3721;44.490;11.220;2022-11-11T03:08:58;16.90;99.90
7362;DHT22;3721;44.490;11.220;2022-11-11T03:11:23;16.90;99.90
7362;DHT22;3721;44.490;11.220;2022-11-11T03:13:56;16.90;99.90
7362;DHT22;3721;44.490;11.220;2022-11-11T03:16:22;16.90;99.90
7362;DHT22;3721;44.490;11.220;2022-11-11T03:19:07;16.90;99.90
7362;DHT22;3721;44.490;11.220;2022-11-11T03:21:33;16.90;99.90
7362;DHT22;3721;44.490;11.220;2022-11-11T03:23:58;16.90;99.90
7362;DHT22;3721;44.490;11.220;2022-11-11T03:26:24;16.90;99.90
7362;DHT22;3721;44.490;11.220;2022-11-11T03:28:50;16.90;99.90
7362;DHT22;3721;44.490;11.220;2022-11-11T03:31:16;16.90;99.90
7362;DHT22;3721;44.490;11.220;2022-11-11T03:33:42;16.90;99.90
7362;DHT22;3721;44.490;11.220;2022-11-11T03:36:08;16.90;99.90
7362;DHT22;3721;44.490;11.220;2022-11-11T03:38:34;16.90;99.90
7362;DHT22;3721;44.490;11.220;2022-11-11T03:41:00;16.90;99.90
7362;DHT22;3721;44.490;11.220;2022-11-11T03:43:28;16.80;99.90
7362;DHT22;3721;44.490;11.220;2022-11-11T03:45:55;16.90;99.90
7362;DHT22;3721;44.490;11.220;2022-11-11T03:48:22;16.90;99.90
7362;DHT22;3721;44.490;11.220;2022-11-11T03:50:49;16.90;99.90
7362;DHT22;3721;44.490;11.220;2022-11-11T03:53:17;16.90;99.90
7362;DHT22;3721;44.490;11.220;2022-11-11T03:55:44;16.90;99.90
7362;DHT22;3721;44.490;11.220;2022-11-11T03:58:10;16.90;99.90
7362;DHT22;3721;44.490;11.220;2022-11-11T04:00:36;16.90;99.90
7362;DHT22;3721;44.490;11.220;2022-11-11T04:05:46;16.90;99.90
7362;DHT22;3721;44.490;11.220;2022-11-11T04:08:30;16.90;99.90
7362;DHT22;3721;44.490;11.220;2022-11-11T04:11:24;16.90;99.90
7362;DHT22;3721;44.490;11.220;2022-11-11T04:13:50;16.90;99.90
7362;DHT22;3721;44.490;11.220;2022-11-11T04:16:35;17.00;99.90
7362;DHT22;3721;44.490;11.220;2022-11-11T04:19:01;17.00;99.90
7362;DHT22;3721;44.490;11.220;2022-11-11T04:21:45;17.00;99.90
7362;DHT22;3721;44.490;11.220;2022-11-11T04:24:18;17.00;99.90
7362;DHT22;3721;44.490;11.220;2022-11-11T04:27:09;17.00;99.90
7362;DHT22;3721;44.490;11.220;2022-11-11T04:29:35;17.00;99.90
7362;DHT22;3721;44.490;11.220;2022-11-11T04:34:51;16.90;99.90
7362;DHT22;3721;44.490;11.220;2022-11-11T04:37:18;17.00;99.90
7362;DHT22;3721;44.490;11.220;2022-11-11T04:39:45;16.90;99.90
7362;DHT22;3721;44.490;11.220;2022-11-11T04:42:30;16.90;99.90
7362;DHT22;3721;44.490;11.220;2022-11-11T04:44:57;16.90;99.90
7362;DHT22;3721;44.490;11.220;2022-11-11T04:48:04;16.90;99.90
7362;DHT22;3721;44.490;11.220;2022-11-11T04:50:33;16.90;99.90
7362;DHT22;3721;44.490;11.220;2022-11-11T04:52:59;16.90;99.90
7362;DHT22;3721;44.490;11.220;2022-11-11T04:55:25;16.90;99.90
7362;DHT22;3721;44.490;11.220;2022-11-11T04:58:10;16.90;99.90
7362;DHT22;3721;44.490;11.220;2022-11-11T05:00:36;16.90;99.90
7362;DHT22;3721;44.490;11.220;2022-11-11T05:03:02;16.90;99.90
7362;DHT22;3721;44.490;11.220;2022-11-11T05:05:53;16.90;99.90
7362;DHT22;3721;44.490;11.220;2022-11-11T05:08:42;16.90;99.90
7362;DHT22;3721;44.490;11.220;2022-11-11T05:11:31;17.00;99.90
7362;DHT22;3721;44.490;11.220;2022-11-11T05:13:59;17.00;99.90
7362;DHT22;3721;44.490;11.220;2022-11-11T05:16:52;16.90;99.90
7362;DHT22;3721;44.490;11.220;2022-11-11T05:19:38;16.90;99.90
7362;DHT22;3721;44.490;11.220;2022-11-11T05:22:42;16.90;99.90
7362;DHT22;3721;44.490;11.220;2022-11-11T05:25:09;16.90;99.90
7362;DHT22;3721;44.490;11.220;2022-11-11T05:27:51;16.90;99.90
7362;DHT22;3721;44.490;11.220;2022-11-11T05:30:18;16.90;99.90
7362;DHT22;3721;44.490;11.220;2022-11-11T05:32:44;16.90;99.90
7362;DHT22;3721;44.490;11.220;2022-11-11T05:35:10;16.90;99.90
7362;DHT22;3721;44.490;11.220;2022-11-11T05:37:39;16.90;99.90
7362;DHT22;3721;44.490;11.220;2022-11-11T05:40:05;16.80;99.90
7362;DHT22;3721;44.490;11.220;2022-11-11T05:42:31;16.80;99.90
7362;DHT22;3721;44.490;11.220;2022-11-11T05:44:57;16.80;99.90
7362;DHT22;3721;44.490;11.220;2022-11-11T05:47:23;16.80;99.90
7362;DHT22;3721;44.490;11.220;2022-11-11T05:49:48;16.70;99.90
7362;DHT22;3721;44.490;11.220;2022-11-11T05:52:15;16.70;99.90
7362;DHT22;3721;44.490;11.220;2022-11-11T05:54:42;16.70;99.90
7362;DHT22;3721;44.490;11.220;2022-11-11T05:57:08;16.70;99.90
7362;DHT22;3721;44.490;11.220;2022-11-11T05:59:34;16.80;99.90
7362;DHT22;3721;44.490;11.220;2022-11-11T06:02:00;16.80;99.90
7362;DHT22;3721;44.490;11.220;2022-11-11T06:04:26;16.80;99.90
7362;DHT22;3721;44.490;11.220;2022-11-11T06:06:52;16.80;99.90
7362;DHT22;3721;44.490;11.220;2022-11-11T06:09:18;16.80;99.90
7362;DHT22;3721;44.490;11.220;2022-11-11T06:11:43;16.80;99.90
7362;DHT22;3721;44.490;11.220;2022-11-11T06:14:09;16.80;99.90
7362;DHT22;3721;44.490;11.220;2022-11-11T06:16:35;16.80;99.90
7362;DHT22;3721;44.490;11.220;2022-11-11T06:19:00;16.80;99.90
7362;DHT22;3721;44.490;11.220;2022-11-11T06:21:29;16.80;99.90
7362;DHT22;3721;44.490;11.220;2022-11-11T06:23:55;16.90;99.90
7362;DHT22;3721;44.490;11.220;2022-11-11T06:26:21;16.90;99.90
7362;DHT22;3721;44.490;11.220;2022-11-11T06:28:55;16.90;99.90
7362;DHT22;3721;44.490;11.220;2022-11-11T06:31:25;16.90;99.90
7362;DHT22;3721;44.490;11.220;2022-11-11T06:33:52;16.90;99.90
7362;DHT22;3721;44.490;11.220;2022-11-11T06:36:19;16.90;99.90
7362;DHT22;3721;44.490;11.220;2022-11-11T06:38:46;16.90;99.90
7362;DHT22;3721;44.490;11.220;2022-11-11T06:41:12;16.90;99.90
7362;DHT22;3721;44.490;11.220;2022-11-11T06:43:39;16.90;99.90
7362;DHT22;3721;44.490;11.220;2022-11-11T06:46:05;16.90;99.90
7362;DHT22;3721;44.490;11.220;2022-11-11T06:48:31;16.90;99.90
7362;DHT22;3721;44.490;11.220;2022-11-11T06:51:05;16.80;99.90
7362;DHT22;3721;44.490;11.220;2022-11-11T06:53:30;16.80;99.90
7362;DHT22;3721;44.490;11.220;2022-11-11T06:55:57;16.90;99.90
7362;DHT22;3721;44.490;11.220;2022-11-11T06:58:23;16.80;99.90
7362;DHT22;3721;44.490;11.220;2022-11-11T07:00:49;16.80;99.90
7362;DHT22;3721;44.490;11.220;2022-11-11T07:03:17;16.80;99.90
7362;DHT22;3721;44.490;11.220;2022-11-11T07:05:44;16.70;99.90
7362;DHT22;3721;44.490;11.220;2022-11-11T07:08:12;16.60;99.90
7362;DHT22;3721;44.490;11.220;2022-11-11T07:10:42;16.40;99.90
7362;DHT22;3721;44.490;11.220;2022-11-11T07:13:08;16.30;99.90
7362;DHT22;3721;44.490;11.220;2022-11-11T07:15:34;16.30;99.90
7362;DHT22;3721;44.490;11.220;2022-11-11T07:18:01;16.20;99.90
7362;DHT22;3721;44.490;11.220;2022-11-11T07:20:27;16.20;99.90
7362;DHT22;3721;44.490;11.220;2022-11-11T07:22:52;16.10;99.90
7362;DHT22;3721;44.490;11.220;2022-11-11T07:25:18;16.10;99.90
7362;DHT22;3721;44.490;11.220;2022-11-11T07:27:44;16.00;99.90
7362;DHT22;3721;44.490;11.220;2022-11-11T07:30:10;16.00;99.90
7362;DHT22;3721;44.490;11.220;2022-11-11T07:32:43;16.00;99.90
7362;DHT22;3721;44.490;11.220;2022-11-11T07:35:10;16.00;99.90
7362;DHT22;3721;44.490;11.220;2022-11-11T07:37:38;16.00;99.90
7362;DHT22;3721;44.490;11.220;2022-11-11T07:40:04;15.90;99.90
7362;DHT22;3721;44.490;11.220;2022-11-11T07:42:30;15.90;99.90
7362;DHT22;3721;44.490;11.220;2022-11-11T07:44:56;16.00;99.90
7362;DHT22;3721;44.490;11.220;2022-11-11T07:47:22;16.10;99.90
7362;DHT22;3721;44.490;11.220;2022-11-11T07:49:47;16.10;99.90
7362;DHT22;3721;44.490;11.220;2022-11-11T07:52:13;16.20;99.90
7362;DHT22;3721;44.490;11.220;2022-11-11T07:54:38;16.30;99.90
7362;DHT22;3721;44.490;11.220;2022-11-11T07:57:04;16.30;99.90
7362;DHT22;3721;44.490;11.220;2022-11-11T07:59:30;16.30;99.90
7362;DHT22;3721;44.490;11.220;2022-11-11T08:01:55;16.30;99.90
7362;DHT22;3721;44.490;11.220;2022-11-11T08:04:21;16.40;99.90
7362;DHT22;3721;44.490;11.220;2022-11-11T08:06:47;16.50;99.90
7362;DHT22;3721;44.490;11.220;2022-11-11T08:09:12;16.50;99.90
7362;DHT22;3721;44.490;11.220;2022-11-11T08:11:38;16.50;99.90
7362;DHT22;3721;44.490;11.220;2022-11-11T08:14:22;16.60;99.90
7362;DHT22;3721;44.490;11.220;2022-11-11T08:16:48;16.60;99.90
7362;DHT22;3721;44.490;11.220;2022-11-11T08:19:13;16.70;99.90
7362;DHT22;3721;44.490;11.220;2022-11-11T08:21:39;16.70;99.90
7362;DHT22;3721;44.490;11.220;2022-11-11T08:24:05;16.70;99.90
7362;DHT22;3721;44.490;11.220;2022-11-11T08:26:33;16.80;99.90
7362;DHT22;3721;44.490;11.220;2022-11-11T08:28:59;16.80;99.90
7362;DHT22;3721;44.490;11.220;2022-11-11T08:31:24;16.80;99.90
7362;DHT22;3721;44.490;11.220;2022-11-11T08:33:51;16.90;99.90
7362;DHT22;3721;44.490;11.220;2022-11-11T08:36:16;16.90;99.90
7362;DHT22;3721;44.490;11.220;2022-11-11T08:38:42;16.90;99.90
7362;DHT22;3721;44.490;11.220;2022-11-11T08:41:09;16.90;99.90
7362;DHT22;3721;44.490;11.220;2022-11-11T08:43:35;16.90;99.90
7362;DHT22;3721;44.490;11.220;2022-11-11T08:46:02;17.00;99.90
7362;DHT22;3721;44.490;11.220;2022-11-11T08:48:31;17.00;99.90
7362;DHT22;3721;44.490;11.220;2022-11-11T08:50:57;17.00;99.90
7362;DHT22;3721;44.490;11.220;2022-11-11T08:53:23;17.10;99.90
7362;DHT22;3721;44.490;11.220;2022-11-11T08:55:49;17.20;99.90
7362;DHT22;3721;44.490;11.220;2022-11-11T08:58:15;17.20;99.90
7362;DHT22;3721;44.490;11.220;2022-11-11T09:00:40;17.30;99.90
7362;DHT22;3721;44.490;11.220;2022-11-11T09:03:09;17.30;99.90
7362;DHT22;3721;44.490;11.220;2022-11-11T09:05:38;17.40;99.90
7362;DHT22;3721;44.490;11.220;2022-11-11T09:08:06;17.50;99.90
7362;DHT22;3721;44.490;11.220;2022-11-11T09:10:35;17.60;99.90
7362;DHT22;3721;44.490;11.220;2022-11-11T09:13:01;17.60;99.90
7362;DHT22;3721;44.490;11.220;2022-11-11T09:15:28;17.70;99.90
7362;DHT22;3721;44.490;11.220;2022-11-11T09:17:54;17.70;99.90
7362;DHT22;3721;44.490;11.220;2022-11-11T09:20:20;17.70;99.90
7362;DHT22;3721;44.490;11.220;2022-11-11T09:22:47;17.80;99.90
7362;DHT22;3721;44.490;11.220;2022-11-11T09:25:13;17.80;99.90
7362;DHT22;3721;44.490;11.220;2022-11-11T09:27:40;17.90;99.90
7362;DHT22;3721;44.490;11.220;2022-11-11T09:30:07;17.90;99.90
7362;DHT22;3721;44.490;11.220;2022-11-11T09:32:32;18.00;99.90
7362;DHT22;3721;44.490;11.220;2022-11-11T09:34:58;18.00;99.90
7362;DHT22;3721;44.490;11.220;2022-11-11T09:37:25;18.10;99.90
7362;DHT22;3721;44.490;11.220;2022-11-11T09:39:51;18.20;99.90
7362;DHT22;3721;44.490;11.220;2022-11-11T09:42:38;18.30;99.90
7362;DHT22;3721;44.490;11.220;2022-11-11T09:50:26;18.40;99.90
7362;DHT22;3721;44.490;11.220;2022-11-11T09:52:58;18.40;99.90
7362;DHT22;3721;44.490;11.220;2022-11-11T09:55:32;18.30;99.90
7362;DHT22;3721;44.490;11.220;2022-11-11T09:58:04;18.40;99.90
7362;DHT22;3721;44.490;11.220;2022-11-11T10:00:35;18.30;99.90
7362;DHT22;3721;44.490;11.220;2022-11-11T10:03:14;18.40;99.90
7362;DHT22;3721;44.490;11.220;2022-11-11T10:10:51;18.40;99.90
7362;DHT22;3721;44.490;11.220;2022-11-11T10:18:49;18.40;99.90
7362;DHT22;3721;44.490;11.220;2022-11-11T10:21:56;18.40;99.90
7362;DHT22;3721;44.490;11.220;2022-11-11T10:24:25;18.40;99.90
7362;DHT22;3721;44.490;11.220;2022-11-11T10:26:52;18.40;99.90
7362;DHT22;3721;44.490;11.220;2022-11-11T10:29:22;18.40;99.90
7362;DHT22;3721;44.490;11.220;2022-11-11T10:32:02;18.40;99.90
7362;DHT22;3721;44.490;11.220;2022-11-11T10:34:32;18.40;99.90
7362;DHT22;3721;44.490;11.220;2022-11-11T10:36:58;18.40;99.90
7362;DHT22;3721;44.490;11.220;2022-11-11T10:39:45;18.40;99.90
7362;DHT22;3721;44.490;11.220;2022-11-11T10:42:16;18.40;99.90
7362;DHT22;3721;44.490;11.220;2022-11-11T10:44:43;18.50;99.90
7362;DHT22;3721;44.490;11.220;2022-11-11T10:49:54;18.50;99.90
7362;DHT22;3721;44.490;11.220;2022-11-11T10:52:26;18.50;99.90
7362;DHT22;3721;44.490;11.220;2022-11-11T10:55:18;18.50;99.90
7362;DHT22;3721;44.490;11.220;2022-11-11T10:57:53;18.50;99.90
7362;DHT22;3721;44.490;11.220;2022-11-11T11:00:21;18.50;99.90
7362;DHT22;3721;44.490;11.220;2022-11-11T11:03:10;18.60;99.90
7362;DHT22;3721;44.490;11.220;2022-11-11T11:05:51;18.50;99.90
7362;DHT22;3721;44.490;11.220;2022-11-11T11:08:25;18.50;99.90
7362;DHT22;3721;44.490;11.220;2022-11-11T11:11:02;18.60;99.90
7362;DHT22;3721;44.490;11.220;2022-11-11T11:16:05;18.60;99.90
7362;DHT22;3721;44.490;11.220;2022-11-11T11:18:33;18.60;99.90
7362;DHT22;3721;44.490;11.220;2022-11-11T11:21:04;18.60;99.90
7362;DHT22;3721;44.490;11.220;2022-11-11T11:23:41;18.60;99.90
7362;DHT22;3721;44.490;11.220;2022-11-11T11:26:09;18.60;99.90
7362;DHT22;3721;44.490;11.220;2022-11-11T11:28:54;18.70;99.90
7362;DHT22;3721;44.490;11.220;2022-11-11T11:31:40;18.80;99.90
7362;DHT22;3721;44.490;11.220;2022-11-11T11:34:07;18.80;99.90
7362;DHT22;3721;44.490;11.220;2022-11-11T11:36:33;18.90;99.90
7362;DHT22;3721;44.490;11.220;2022-11-11T11:38:59;18.90;99.90
7362;DHT22;3721;44.490;11.220;2022-11-11T11:41:42;18.90;99.90
7362;DHT22;3721;44.490;11.220;2022-11-11T11:44:38;18.90;99.90
7362;DHT22;3721;44.490;11.220;2022-11-11T11:47:35;19.00;99.90
7362;DHT22;3721;44.490;11.220;2022-11-11T11:52:58;19.10;99.90
7362;DHT22;3721;44.490;11.220;2022-11-11T11:55:34;19.10;99.80
7362;DHT22;3721;44.490;11.220;2022-11-11T12:00:45;19.20;99.80
7362;DHT22;3721;44.490;11.220;2022-11-11T12:05:48;19.30;99.40
7362;DHT22;3721;44.490;11.220;2022-11-11T12:21:24;19.20;98.70
7362;DHT22;3721;44.490;11.220;2022-11-11T12:28:56;19.10;98.70
7362;DHT22;3721;44.490;11.220;2022-11-11T12:37:23;19.00;98.20
7362;DHT22;3721;44.490;11.220;2022-11-11T12:42:29;19.00;98.30
7362;DHT22;3721;44.490;11.220;2022-11-11T12:45:08;19.00;97.80
7362;DHT22;3721;44.490;11.220;2022-11-11T13:01:50;18.70;97.20
7362;DHT22;3721;44.490;11.220;2022-11-11T13:15:30;18.90;97.10
7362;DHT22;3721;44.490;11.220;2022-11-11T13:17:59;18.90;97.30
7362;DHT22;3721;44.490;11.220;2022-11-11T13:23:09;19.00;97.40
7362;DHT22;3721;44.490;11.220;2022-11-11T13:25:43;19.00;97.40
7362;DHT22;3721;44.490;11.220;2022-11-11T13:33:37;19.00;97.20
7362;DHT22;3721;44.490;11.220;2022-11-11T13:36:06;19.00;97.10
7362;DHT22;3721;44.490;11.220;2022-11-11T13:38:37;18.90;96.90
7362;DHT22;3721;44.490;11.220;2022-11-11T13:41:06;18.90;96.80
7362;DHT22;3721;44.490;11.220;2022-11-11T13:43:34;18.90;96.80
7362;DHT22;3721;44.490;11.220;2022-11-11T13:46:02;18.90;96.80
7362;DHT22;3721;44.490;11.220;2022-11-11T13:48:42;18.90;96.70
7362;DHT22;3721;44.490;11.220;2022-11-11T13:51:24;18.90;96.60
7362;DHT22;3721;44.490;11.220;2022-11-11T13:53:50;19.00;96.60
7362;DHT22;3721;44.490;11.220;2022-11-11T13:56:40;19.00;96.60
7362;DHT22;3721;44.490;11.220;2022-11-11T13:59:13;19.00;96.70
7362;DHT22;3721;44.490;11.220;2022-11-11T14:01:42;19.00;96.70
7362;DHT22;3721;44.490;11.220;2022-11-11T14:04:09;19.00;96.70
7362;DHT22;3721;44.490;11.220;2022-11-11T14:06:36;18.90;96.60
7362;DHT22;3721;44.490;11.220;2022-11-11T14:09:03;18.90;96.60
7362;DHT22;3721;44.490;11.220;2022-11-11T14:11:33;18.90;96.60
7362;DHT22;3721;44.490;11.220;2022-11-11T14:17:00;18.90;96.50
7362;DHT22;3721;44.490;11.220;2022-11-11T14:19:28;18.80;96.50
7362;DHT22;3721;44.490;11.220;2022-11-11T14:21:58;18.80;96.60
7362;DHT22;3721;44.490;11.220;2022-11-11T14:24:45;18.90;96.60
7362;DHT22;3721;44.490;11.220;2022-11-11T14:29:45;18.90;96.80
7362;DHT22;3721;44.490;11.220;2022-11-11T14:40:28;18.80;96.70
7362;DHT22;3721;44.490;11.220;2022-11-11T14:42:55;18.80;96.70
7362;DHT22;3721;44.490;11.220;2022-11-11T14:47:56;18.70;96.80
7362;DHT22;3721;44.490;11.220;2022-11-11T14:53:18;18.70;96.70
7362;DHT22;3721;44.490;11.220;2022-11-11T14:55:51;18.70;96.70
7362;DHT22;3721;44.490;11.220;2022-11-11T14:58:24;18.70;96.70
7362;DHT22;3721;44.490;11.220;2022-11-11T15:01:11;18.70;96.70
7362;DHT22;3721;44.490;11.220;2022-11-11T15:03:41;18.70;96.70
7362;DHT22;3721;44.490;11.220;2022-11-11T15:06:26;18.70;96.80
7362;DHT22;3721;44.490;11.220;2022-11-11T15:09:18;18.70;96.80
7362;DHT22;3721;44.490;11.220;2022-11-11T15:25:30;18.50;97.10
7362;DHT22;3721;44.490;11.220;2022-11-11T15:37:03;18.40;97.60
7362;DHT22;3721;44.490;11.220;2022-11-11T15:39:49;18.40;97.70
7362;DHT22;3721;44.490;11.220;2022-11-11T15:42:42;18.40;97.80
7362;DHT22;3721;44.490;11.220;2022-11-11T15:45:23;18.40;97.80
7362;DHT22;3721;44.490;11.220;2022-11-11T15:47:50;18.30;97.80
7362;DHT22;3721;44.490;11.220;2022-11-11T15:52:55;18.30;98.00
7362;DHT22;3721;44.490;11.220;2022-11-11T15:55:39;18.30;98.20
7362;DHT22;3721;44.490;11.220;2022-11-11T15:58:15;18.20;98.30
7362;DHT22;3721;44.490;11.220;2022-11-11T16:00:41;18.20;98.40
7362;DHT22;3721;44.490;11.220;2022-11-11T16:03:22;18.20;98.50
7362;DHT22;3721;44.490;11.220;2022-11-11T16:05:49;18.20;98.50
7362;DHT22;3721;44.490;11.220;2022-11-11T16:08:18;18.20;98.60
7362;DHT22;3721;44.490;11.220;2022-11-11T16:10:46;18.10;98.60
7362;DHT22;3721;44.490;11.220;2022-11-11T16:13:20;18.10;98.70
7362;DHT22;3721;44.490;11.220;2022-11-11T16:18:25;18.00;98.90
7362;DHT22;3721;44.490;11.220;2022-11-11T16:23:30;17.90;99.00
7362;DHT22;3721;44.490;11.220;2022-11-11T16:25:58;17.90;99.10
7362;DHT22;3721;44.490;11.220;2022-11-11T16:28:29;17.90;99.10
7362;DHT22;3721;44.490;11.220;2022-11-11T16:30:55;17.80;99.00
7362;DHT22;3721;44.490;11.220;2022-11-11T16:35:50;17.70;98.80
7362;DHT22;3721;44.490;11.220;2022-11-11T16:38:34;17.70;98.70
7362;DHT22;3721;44.490;11.220;2022-11-11T16:41:00;17.50;98.70
7362;DHT22;3721;44.490;11.220;2022-11-11T16:43:39;17.50;98.70
7362;DHT22;3721;44.490;11.220;2022-11-11T16:46:11;17.40;98.80
7362;DHT22;3721;44.490;11.220;2022-11-11T16:48:44;17.40;98.80
7362;DHT22;3721;44.490;11.220;2022-11-11T16:51:15;17.30;98.80
7362;DHT22;3721;44.490;11.220;2022-11-11T16:53:54;17.20;98.80
7362;DHT22;3721;44.490;11.220;2022-11-11T16:56:25;17.20;98.90
7362;DHT22;3721;44.490;11.220;2022-11-11T16:58:55;17.20;98.90
7362;DHT22;3721;44.490;11.220;2022-11-11T17:01:21;17.20;98.80
7362;DHT22;3721;44.490;11.220;2022-11-11T17:03:57;17.10;98.80
7362;DHT22;3721;44.490;11.220;2022-11-11T17:06:52;17.10;98.80
7362;DHT22;3721;44.490;11.220;2022-11-11T17:09:32;17.00;98.80
7362;DHT22;3721;44.490;11.220;2022-11-11T17:11:58;17.00;98.70
7362;DHT22;3721;44.490;11.220;2022-11-11T17:14:26;16.90;98.80
7362;DHT22;3721;44.490;11.220;2022-11-11T17:16:52;16.90;98.90
7362;DHT22;3721;44.490;11.220;2022-11-11T17:19:17;16.90;98.90
7362;DHT22;3721;44.490;11.220;2022-11-11T17:21:43;16.90;98.80
7362;DHT22;3721;44.490;11.220;2022-11-11T17:24:09;16.90;98.80
7362;DHT22;3721;44.490;11.220;2022-11-11T17:26:35;16.80;98.70
7362;DHT22;3721;44.490;11.220;2022-11-11T17:29:00;16.80;98.70
7362;DHT22;3721;44.490;11.220;2022-11-11T17:31:26;16.70;98.70
7362;DHT22;3721;44.490;11.220;2022-11-11T17:33:52;16.70;98.70
7362;DHT22;3721;44.490;11.220;2022-11-11T17:36:17;16.70;98.70
7362;DHT22;3721;44.490;11.220;2022-11-11T17:38:43;16.70;98.60
7362;DHT22;3721;44.490;11.220;2022-11-11T17:41:13;16.70;98.60
7362;DHT22;3721;44.490;11.220;2022-11-11T17:43:38;16.70;98.60
7362;DHT22;3721;44.490;11.220;2022-11-11T17:46:04;16.60;98.60
7362;DHT22;3721;44.490;11.220;2022-11-11T17:48:30;16.60;98.60
7362;DHT22;3721;44.490;11.220;2022-11-11T17:50:56;16.60;98.70
7362;DHT22;3721;44.490;11.220;2022-11-11T17:53:22;16.60;98.70
7362;DHT22;3721;44.490;11.220;2022-11-11T17:55:47;16.60;98.80
7362;DHT22;3721;44.490;11.220;2022-11-11T17:58:15;16.70;98.90
7362;DHT22;3721;44.490;11.220;2022-11-11T18:00:41;16.70;98.90
7362;DHT22;3721;44.490;11.220;2022-11-11T18:03:07;16.70;98.90
7362;DHT22;3721;44.490;11.220;2022-11-11T18:05:33;16.70;99.00
7362;DHT22;3721;44.490;11.220;2022-11-11T18:07:59;16.70;99.00
7362;DHT22;3721;44.490;11.220;2022-11-11T18:10:25;16.80;99.10
7362;DHT22;3721;44.490;11.220;2022-11-11T18:12:51;16.80;99.20
7362;DHT22;3721;44.490;11.220;2022-11-11T18:15:16;16.90;99.30
7362;DHT22;3721;44.490;11.220;2022-11-11T18:17:42;16.90;99.30
7362;DHT22;3721;44.490;11.220;2022-11-11T18:20:08;16.90;99.40
7362;DHT22;3721;44.490;11.220;2022-11-11T18:22:34;16.90;99.40
7362;DHT22;3721;44.490;11.220;2022-11-11T18:24:59;17.00;99.50
7362;DHT22;3721;44.490;11.220;2022-11-11T18:27:25;16.90;99.40
7362;DHT22;3721;44.490;11.220;2022-11-11T18:29:50;16.90;99.40
7362;DHT22;3721;44.490;11.220;2022-11-11T18:32:16;16.90;99.40
7362;DHT22;3721;44.490;11.220;2022-11-11T18:34:42;16.90;99.40
7362;DHT22;3721;44.490;11.220;2022-11-11T18:37:09;16.80;99.30